createdAt,value
2019-05-25T00:01:00.700Z,14.27
2019-05-25T00:03:33.737Z,14.22
2019-05-25T00:06:07.672Z,14.23
2019-05-25T00:08:40.495Z,14.18
2019-05-25T00:11:13.396Z,14.17
2019-05-25T00:13:46.227Z,14.13
2019-05-25T00:16:19.141Z,14.12
2019-05-25T00:18:51.971Z,14.13
2019-05-25T00:21:24.791Z,14.11
2019-05-25T00:24:11.179Z,14.06
2019-05-25T00:26:32.246Z,14.00
2019-05-25T00:29:05.131Z,13.97
2019-05-25T00:31:38.004Z,13.95
2019-05-25T00:34:10.987Z,13.89
2019-05-25T00:36:43.908Z,13.87
2019-05-25T00:39:16.880Z,13.87
2019-05-25T00:41:49.766Z,13.85
2019-05-25T00:44:22.641Z,13.86
2019-05-25T00:46:55.562Z,13.85
2019-05-25T00:49:28.382Z,13.80
2019-05-25T00:52:01.294Z,13.76
2019-05-25T00:54:34.142Z,13.73
2019-05-25T00:57:06.967Z,13.73
2019-05-25T00:59:39.796Z,13.72
2019-05-25T01:02:12.617Z,13.67
2019-05-25T01:04:46.393Z,13.62
2019-05-25T01:07:20.744Z,13.61
2019-05-25T01:09:53.956Z,13.59
2019-05-25T01:12:26.791Z,13.55
2019-05-25T01:14:59.635Z,13.51
2019-05-25T01:17:34.778Z,13.49
2019-05-25T01:20:08.601Z,13.46
2019-05-25T01:22:42.969Z,13.44
2019-05-25T01:25:18.345Z,13.42
2019-05-25T01:27:51.239Z,13.38
2019-05-25T01:30:24.432Z,13.35
2019-05-25T01:32:57.320Z,13.35
2019-05-25T01:35:31.602Z,13.35
2019-05-25T01:38:06.846Z,13.33
2019-05-25T01:40:40.759Z,13.31
2019-05-25T01:43:13.583Z,13.24
2019-05-25T01:45:46.611Z,13.22
2019-05-25T01:48:19.463Z,13.18
2019-05-25T01:50:52.317Z,13.11
2019-05-25T01:53:25.290Z,13.07
2019-05-25T01:55:58.185Z,13.03
2019-05-25T01:58:32.363Z,13.00
2019-05-25T02:01:05.539Z,12.98
2019-05-25T02:03:38.509Z,12.95
2019-05-25T02:06:11.401Z,12.95
2019-05-25T02:08:44.264Z,12.96
2019-05-25T02:11:17.117Z,12.92
2019-05-25T02:13:49.984Z,12.92
2019-05-25T02:16:22.895Z,12.89
2019-05-25T02:18:55.757Z,12.88
2019-05-25T02:21:28.566Z,12.81
2019-05-25T02:24:01.556Z,12.82
2019-05-25T02:26:34.560Z,12.84
2019-05-25T02:29:07.350Z,12.83
2019-05-25T02:31:40.226Z,12.82
2019-05-25T02:34:13.068Z,12.84
2019-05-25T02:36:45.879Z,12.85
2019-05-25T02:39:18.750Z,12.84
2019-05-25T02:41:51.625Z,12.80
2019-05-25T02:44:24.464Z,12.82
2019-05-25T02:46:57.345Z,12.80
2019-05-25T02:49:31.232Z,12.80
2019-05-25T02:52:04.044Z,12.77
2019-05-25T02:54:36.869Z,12.75
2019-05-25T02:57:09.816Z,12.74
2019-05-25T02:59:42.662Z,12.72
2019-05-25T03:02:15.558Z,12.73
2019-05-25T03:04:48.391Z,12.76
2019-05-25T03:07:22.494Z,12.79
2019-05-25T03:09:57.149Z,12.81
2019-05-25T03:12:31.423Z,12.86
2019-05-25T03:15:04.749Z,12.91
2019-05-25T03:17:37.771Z,12.94
2019-05-25T03:20:10.616Z,13.00
2019-05-25T03:22:43.884Z,13.00
2019-05-25T03:25:18.353Z,13.01
2019-05-25T03:27:51.336Z,13.04
2019-05-25T03:30:35.939Z,13.05
2019-05-25T03:33:08.853Z,13.09
2019-05-25T03:35:41.641Z,13.10
2019-05-25T03:38:14.638Z,13.09
2019-05-25T03:40:47.579Z,13.08
2019-05-25T03:43:20.991Z,13.06
2019-05-25T03:45:53.915Z,13.06
2019-05-25T03:48:27.003Z,13.07
2019-05-25T03:51:00.244Z,13.11
2019-05-25T03:53:33.164Z,13.11
2019-05-25T03:56:06.582Z,13.15
2019-05-25T03:58:39.710Z,13.19
2019-05-25T04:01:12.735Z,13.25
2019-05-25T04:03:45.751Z,13.29
2019-05-25T04:06:18.695Z,13.40
2019-05-25T04:08:51.767Z,13.50
2019-05-25T04:11:24.589Z,13.54
2019-05-25T04:13:57.595Z,13.60
2019-05-25T04:16:30.479Z,13.64
2019-05-25T04:19:03.547Z,13.73
2019-05-25T04:21:36.716Z,13.85
2019-05-25T04:24:14.433Z,13.96
2019-05-25T04:26:47.378Z,14.06
2019-05-25T04:29:20.268Z,14.21
2019-05-25T04:31:53.371Z,14.35
2019-05-25T04:34:26.364Z,14.46
2019-05-25T04:36:59.336Z,14.60
2019-05-25T04:39:32.208Z,14.82
2019-05-25T04:42:05.035Z,14.76
2019-05-25T04:44:38.177Z,14.77
2019-05-25T04:47:26.121Z,14.75
2019-05-25T04:49:45.850Z,14.78
2019-05-25T04:52:18.827Z,14.93
2019-05-25T04:54:52.048Z,15.03
2019-05-25T04:57:25.111Z,15.11
2019-05-25T04:59:58.148Z,15.25
2019-05-25T05:02:31.196Z,15.37
2019-05-25T05:05:04.040Z,15.62
2019-05-25T05:07:37.017Z,15.78
2019-05-25T05:10:10.605Z,16.01
2019-05-25T05:12:43.513Z,15.97
2019-05-25T05:15:16.496Z,16.06
2019-05-25T05:17:49.539Z,15.98
2019-05-25T05:20:22.358Z,15.85
2019-05-25T05:22:55.247Z,15.85
2019-05-25T05:25:28.130Z,15.85
2019-05-25T05:28:01.059Z,15.75
2019-05-25T05:30:35.022Z,15.69
2019-05-25T05:33:08.020Z,15.63
2019-05-25T05:35:41.310Z,15.55
2019-05-25T05:38:14.372Z,15.44
2019-05-25T05:40:47.380Z,15.33
2019-05-25T05:43:22.565Z,15.05
2019-05-25T05:45:56.751Z,15.21
2019-05-25T05:48:31.477Z,15.54
2019-05-25T05:51:05.734Z,15.68
2019-05-25T05:53:42.109Z,15.61
2019-05-25T05:56:14.954Z,15.76
2019-05-25T05:58:47.910Z,15.98
2019-05-25T06:01:20.798Z,16.16
2019-05-25T06:03:54.522Z,16.19
2019-05-25T06:06:27.346Z,16.34
2019-05-25T06:09:00.352Z,16.53
2019-05-25T06:11:34.656Z,16.74
2019-05-25T06:14:07.542Z,16.92
2019-05-25T06:16:40.524Z,16.92
2019-05-25T06:19:13.615Z,17.05
2019-05-25T06:21:46.581Z,17.01
2019-05-25T06:24:21.328Z,17.09
2019-05-25T06:26:54.572Z,17.31
2019-05-25T06:29:29.429Z,17.37
2019-05-25T06:32:02.513Z,17.01
2019-05-25T06:34:35.682Z,17.18
2019-05-25T06:37:08.877Z,17.35
2019-05-25T06:39:41.817Z,17.54
2019-05-25T06:42:14.702Z,17.65
2019-05-25T06:44:47.937Z,17.85
2019-05-25T06:47:20.935Z,17.62
2019-05-25T06:49:54.259Z,17.52
2019-05-25T06:52:27.209Z,17.61
2019-05-25T06:55:00.416Z,17.60
2019-05-25T06:57:42.513Z,17.40
2019-05-25T07:00:10.396Z,17.66
2019-05-25T07:02:43.780Z,18.01
2019-05-25T07:05:16.895Z,18.20
2019-05-25T07:07:50.080Z,18.39
2019-05-25T07:10:23.268Z,18.83
2019-05-25T07:12:56.420Z,18.87
2019-05-25T07:15:29.407Z,18.92
2019-05-25T07:18:02.962Z,19.17
2019-05-25T07:20:36.063Z,19.32
2019-05-25T07:23:09.187Z,19.47
2019-05-25T07:25:42.953Z,19.56
2019-05-25T07:28:16.339Z,20.01
2019-05-25T07:30:52.227Z,19.89
2019-05-25T07:33:25.521Z,20.02
2019-05-25T07:35:58.535Z,20.02
2019-05-25T07:38:31.474Z,20.27
2019-05-25T07:41:04.421Z,20.27
2019-05-25T07:43:37.518Z,20.77
2019-05-25T07:46:10.379Z,20.25
2019-05-25T07:48:44.803Z,20.03
2019-05-25T07:51:17.664Z,20.26
2019-05-25T07:53:50.518Z,20.32
2019-05-25T07:56:23.413Z,20.45
2019-05-25T07:58:56.346Z,20.63
2019-05-25T08:01:29.253Z,20.86
2019-05-25T08:04:02.169Z,20.79
2019-05-25T08:06:35.054Z,20.56
2019-05-25T08:09:09.290Z,20.51
2019-05-25T08:11:42.184Z,19.92
2019-05-25T08:14:15.413Z,20.39
2019-05-25T08:16:48.351Z,20.81
2019-05-25T08:19:21.145Z,20.82
2019-05-25T08:21:54.070Z,21.14
2019-05-25T08:24:27.040Z,21.25
2019-05-25T08:26:59.916Z,21.34
2019-05-25T08:29:32.874Z,21.38
2019-05-25T08:32:05.725Z,21.19
2019-05-25T08:34:38.683Z,21.25
2019-05-25T08:37:11.660Z,21.36
2019-05-25T08:39:44.536Z,20.83
2019-05-25T08:42:17.386Z,21.13
2019-05-25T08:44:50.280Z,21.55
2019-05-25T08:47:23.309Z,21.54
2019-05-25T08:49:56.413Z,21.45
2019-05-25T08:52:29.430Z,21.50
2019-05-25T08:55:02.430Z,21.67
2019-05-25T08:57:35.456Z,21.77
2019-05-25T09:00:10.728Z,22.03
2019-05-25T09:02:44.034Z,21.58
2019-05-25T09:05:17.102Z,21.38
2019-05-25T09:07:50.288Z,21.78
2019-05-25T09:10:23.220Z,22.16
2019-05-25T09:12:56.199Z,21.87
2019-05-25T09:15:29.062Z,21.70
2019-05-25T09:18:01.995Z,21.78
2019-05-25T09:20:34.926Z,21.69
2019-05-25T09:23:08.569Z,21.92
2019-05-25T09:25:41.884Z,21.87
2019-05-25T09:28:15.019Z,22.16
2019-05-25T09:30:47.987Z,22.47
2019-05-25T09:33:20.882Z,21.45
2019-05-25T09:35:53.720Z,21.91
2019-05-25T09:38:26.681Z,22.28
2019-05-25T09:40:59.617Z,22.54
2019-05-25T09:43:34.030Z,21.98
2019-05-25T09:46:07.194Z,21.66
2019-05-25T09:48:40.153Z,21.91
2019-05-25T09:51:16.243Z,22.23
2019-05-25T09:53:47.980Z,22.60
2019-05-25T09:56:23.657Z,22.75
2019-05-25T09:58:57.913Z,23.00
2019-05-25T10:01:34.785Z,22.77
2019-05-25T10:04:07.859Z,22.80
2019-05-25T10:06:41.545Z,22.78
2019-05-25T10:09:16.322Z,23.08
2019-05-25T10:11:49.418Z,23.75
2019-05-25T10:14:22.404Z,24.01
2019-05-25T10:16:56.115Z,24.19
2019-05-25T10:19:29.409Z,24.35
2019-05-25T10:22:02.314Z,24.13
2019-05-25T10:24:35.850Z,23.97
2019-05-25T10:27:08.721Z,23.44
2019-05-25T10:29:41.595Z,23.50
2019-05-25T10:32:14.579Z,23.38
2019-05-25T10:34:47.536Z,23.51
2019-05-25T10:37:20.669Z,22.99
2019-05-25T10:39:55.792Z,23.49
2019-05-25T10:42:29.043Z,23.56
2019-05-25T10:45:04.444Z,23.17
2019-05-25T10:47:37.538Z,22.84
2019-05-25T10:50:13.537Z,22.65
2019-05-25T10:52:46.821Z,23.03
2019-05-25T10:55:19.745Z,23.41
2019-05-25T10:57:52.964Z,23.29
2019-05-25T11:00:27.160Z,23.29
2019-05-25T11:03:00.792Z,23.27
2019-05-25T11:05:33.695Z,23.12
2019-05-25T11:08:06.587Z,22.80
2019-05-25T11:10:39.750Z,23.15
2019-05-25T11:13:12.727Z,23.24
2019-05-25T11:15:45.613Z,22.87
2019-05-25T11:18:27.538Z,23.01
2019-05-25T11:20:57.323Z,23.24
2019-05-25T11:23:31.287Z,22.92
2019-05-25T11:26:04.297Z,22.55
2019-05-25T11:28:37.297Z,22.43
2019-05-25T11:31:10.265Z,22.36
2019-05-25T11:33:43.247Z,22.05
2019-05-25T11:36:52.233Z,21.91
2019-05-25T11:39:29.586Z,22.16
2019-05-25T11:42:13.890Z,21.75
2019-05-25T11:44:59.393Z,21.72
2019-05-25T11:47:32.545Z,22.19
2019-05-25T11:50:06.402Z,22.62
2019-05-25T11:52:39.597Z,22.55
2019-05-25T11:55:13.414Z,22.32
2019-05-25T11:57:46.364Z,21.99
2019-05-25T12:00:25.410Z,21.92
2019-05-25T12:02:57.099Z,22.54
2019-05-25T12:05:30.254Z,22.37
2019-05-25T12:08:03.192Z,22.86
2019-05-25T12:10:38.458Z,22.51
2019-05-25T12:13:11.932Z,22.66
2019-05-25T12:15:48.244Z,22.75
2019-05-25T12:18:35.099Z,22.75
2019-05-25T12:21:10.896Z,23.14
2019-05-25T12:23:43.866Z,23.36
2019-05-25T12:26:16.941Z,23.32
2019-05-25T12:28:49.984Z,22.75
2019-05-25T12:31:22.857Z,22.12
2019-05-25T12:33:56.020Z,21.73
2019-05-25T12:36:29.041Z,21.57
2019-05-25T12:39:01.933Z,21.61
2019-05-25T12:41:36.373Z,21.09
2019-05-25T12:44:10.930Z,21.25
2019-05-25T12:46:46.841Z,21.83
2019-05-25T12:49:19.807Z,21.62
2019-05-25T12:51:52.620Z,21.51
2019-05-25T12:54:25.582Z,21.49
2019-05-25T12:56:58.481Z,21.52
2019-05-25T12:59:31.280Z,21.79
2019-05-25T13:02:04.255Z,21.56
2019-05-25T13:04:37.124Z,21.69
2019-05-25T13:07:09.926Z,21.64
2019-05-25T13:09:42.891Z,21.62
2019-05-25T13:12:15.963Z,21.62
2019-05-25T13:14:48.944Z,21.35
2019-05-25T13:17:21.970Z,21.43
2019-05-25T13:19:57.631Z,21.72
2019-05-25T13:22:30.876Z,21.54
2019-05-25T13:25:04.035Z,21.75
2019-05-25T13:27:37.124Z,21.82
2019-05-25T13:30:10.396Z,21.89
2019-05-25T13:32:44.429Z,21.45
2019-05-25T13:35:17.287Z,21.39
2019-05-25T13:37:50.220Z,21.46
2019-05-25T13:40:23.160Z,21.39
2019-05-25T13:42:56.687Z,21.38
2019-05-25T13:45:29.674Z,21.37
2019-05-25T13:48:02.561Z,21.36
2019-05-25T13:50:35.504Z,21.18
2019-05-25T13:53:08.496Z,21.03
2019-05-25T13:55:41.501Z,21.14
2019-05-25T13:58:15.781Z,21.06
2019-05-25T14:00:49.051Z,21.00
2019-05-25T14:03:22.373Z,21.06
2019-05-25T14:06:00.227Z,21.06
2019-05-25T14:08:33.662Z,21.00
2019-05-25T14:11:09.593Z,20.88
2019-05-25T14:13:45.798Z,20.88
2019-05-25T14:16:20.631Z,20.77
2019-05-25T14:18:53.791Z,20.74
2019-05-25T14:21:27.148Z,20.48
2019-05-25T14:24:00.139Z,20.66
2019-05-25T14:26:33.145Z,20.67
2019-05-25T14:29:06.168Z,20.92
2019-05-25T14:31:45.479Z,20.97
2019-05-25T14:34:14.217Z,21.02
2019-05-25T14:36:47.121Z,21.14
2019-05-25T14:39:19.980Z,21.14
2019-05-25T14:41:52.960Z,21.05
2019-05-25T14:44:25.968Z,21.08
2019-05-25T14:46:58.935Z,21.08
2019-05-25T14:49:32.971Z,21.15
2019-05-25T14:52:06.367Z,20.90
2019-05-25T14:54:39.395Z,20.80
2019-05-25T14:57:12.443Z,20.73
2019-05-25T14:59:46.626Z,20.67
2019-05-25T15:02:19.680Z,20.69
2019-05-25T15:04:52.848Z,20.76
2019-05-25T15:07:27.923Z,20.67
2019-05-25T15:10:01.048Z,20.61
2019-05-25T15:12:34.066Z,20.57
2019-05-25T15:15:07.356Z,20.51
2019-05-25T15:17:42.923Z,20.46
2019-05-25T15:20:16.333Z,20.20
2019-05-25T15:22:49.989Z,19.96
2019-05-25T15:25:24.621Z,19.84
2019-05-25T15:27:58.051Z,19.70
2019-05-25T15:30:31.342Z,19.57
2019-05-25T15:33:07.596Z,19.48
2019-05-25T15:35:41.293Z,19.49
2019-05-25T15:38:16.418Z,19.46
2019-05-25T15:41:28.341Z,19.46
2019-05-25T15:44:01.376Z,19.38
2019-05-25T15:46:34.612Z,19.44
2019-05-25T15:49:07.941Z,19.41
2019-05-25T15:51:43.793Z,19.49
2019-05-25T15:54:26.120Z,19.51
2019-05-25T15:57:06.244Z,19.54
2019-05-25T15:59:40.680Z,19.31
2019-05-25T16:02:35.366Z,19.25
2019-05-25T16:04:53.537Z,19.21
2019-05-25T16:07:29.059Z,19.06
2019-05-25T16:10:02.701Z,19.14
2019-05-25T16:12:39.002Z,18.96
2019-05-25T16:15:12.986Z,18.75
2019-05-25T16:17:49.043Z,18.84
2019-05-25T16:20:25.334Z,18.88
2019-05-25T16:22:58.941Z,18.87
2019-05-25T16:25:36.033Z,18.60
2019-05-25T16:28:10.628Z,18.43
2019-05-25T16:30:56.958Z,18.50
2019-05-25T16:33:32.683Z,18.42
2019-05-25T16:36:11.911Z,18.40
2019-05-25T16:38:46.750Z,18.24
2019-05-25T16:41:45.420Z,18.17
2019-05-25T16:45:43.275Z,18.09
2019-05-25T16:48:22.376Z,18.19
2019-05-25T16:51:03.910Z,18.14
2019-05-25T16:53:38.317Z,18.07
2019-05-25T16:56:13.876Z,18.02
2019-05-25T16:58:50.320Z,17.88
2019-05-25T17:01:25.360Z,17.72
2019-05-25T17:04:00.105Z,17.68
2019-05-25T17:06:39.968Z,17.70
2019-05-25T17:09:25.519Z,17.76
2019-05-25T17:12:06.347Z,17.71
2019-05-25T17:14:42.039Z,17.85
2019-05-25T17:17:21.055Z,17.87
2019-05-25T17:20:05.437Z,17.92
2019-05-25T17:22:59.069Z,17.86
2019-05-25T17:26:34.905Z,17.87
2019-05-25T17:29:23.556Z,17.89
2019-05-25T17:32:26.805Z,17.89
2019-05-25T17:35:46.262Z,17.95
2019-05-25T17:39:22.909Z,17.80
2019-05-25T17:42:13.786Z,17.65
2019-05-25T17:45:52.037Z,17.52
2019-05-25T17:48:29.872Z,17.52
2019-05-25T17:51:35.074Z,17.25
2019-05-25T17:54:16.540Z,17.26
2019-05-25T17:56:51.575Z,17.28
2019-05-25T17:59:27.938Z,17.19
2019-05-25T18:02:04.757Z,17.27
2019-05-25T18:04:43.102Z,17.35
2019-05-25T18:07:17.522Z,17.34
2019-05-25T18:09:50.622Z,17.23
2019-05-25T18:12:23.495Z,17.26
2019-05-25T18:14:56.430Z,17.20
2019-05-25T18:17:29.260Z,17.19
2019-05-25T18:20:02.175Z,17.04
2019-05-25T18:22:35.177Z,16.93
2019-05-25T18:25:08.577Z,16.82
2019-05-25T18:27:41.388Z,16.73
2019-05-25T18:30:14.778Z,16.60
2019-05-25T18:32:47.621Z,16.48
2019-05-25T18:35:20.496Z,16.39
2019-05-25T18:37:53.373Z,16.25
2019-05-25T18:40:26.489Z,16.22
2019-05-25T18:42:59.880Z,16.13
2019-05-25T18:45:32.985Z,16.00
2019-05-25T18:48:06.878Z,15.95
2019-05-25T18:50:39.680Z,15.95
2019-05-25T18:53:12.538Z,15.87
2019-05-25T18:55:45.515Z,15.68
2019-05-25T18:58:18.375Z,15.62
2019-05-25T19:00:51.982Z,15.49
2019-05-25T19:03:24.997Z,15.48
2019-05-25T19:05:57.849Z,15.46
2019-05-25T19:08:31.518Z,15.50
2019-05-25T19:11:04.720Z,15.52
2019-05-25T19:13:37.931Z,15.49
2019-05-25T19:16:11.721Z,15.45
2019-05-25T19:18:44.883Z,15.47
2019-05-25T19:21:17.829Z,15.49
2019-05-25T19:23:51.334Z,15.45
2019-05-25T19:26:24.641Z,15.46
2019-05-25T19:28:57.596Z,15.40
2019-05-25T19:31:30.629Z,15.37
2019-05-25T19:34:04.074Z,15.36
2019-05-25T19:36:37.379Z,15.29
2019-05-25T19:39:10.891Z,15.25
2019-05-25T19:41:43.921Z,15.25
2019-05-25T19:44:16.981Z,15.20
2019-05-25T19:46:50.140Z,15.16
2019-05-25T19:49:23.287Z,15.18
2019-05-25T19:51:56.703Z,15.16
2019-05-25T19:54:29.786Z,15.09
2019-05-25T19:57:03.108Z,15.01
2019-05-25T19:59:36.028Z,14.98
2019-05-25T20:02:09.015Z,14.90
2019-05-25T20:04:42.332Z,14.85
2019-05-25T20:07:16.021Z,14.86
2019-05-25T20:09:49.562Z,14.77
2019-05-25T20:12:22.924Z,14.78
2019-05-25T20:14:55.933Z,14.76
2019-05-25T20:17:28.901Z,14.76
2019-05-25T20:20:02.032Z,14.78
2019-05-25T20:22:36.153Z,14.76
2019-05-25T20:25:10.824Z,14.74
2019-05-25T20:27:44.264Z,14.73
2019-05-25T20:30:17.167Z,14.64
2019-05-25T20:32:50.205Z,14.58
2019-05-25T20:35:32.237Z,14.53
2019-05-25T20:37:58.015Z,14.52
2019-05-25T20:40:30.917Z,14.46
2019-05-25T20:43:03.962Z,14.44
2019-05-25T20:45:36.785Z,14.43
2019-05-25T20:48:11.113Z,14.38
2019-05-25T20:50:45.166Z,14.30
2019-05-25T20:53:18.247Z,14.27
2019-05-25T20:55:51.216Z,14.16
2019-05-25T20:58:24.269Z,14.11
2019-05-25T21:00:57.217Z,14.09
2019-05-25T21:03:30.099Z,14.09
2019-05-25T21:06:02.984Z,14.04
2019-05-25T21:08:36.006Z,13.99
2019-05-25T21:11:08.803Z,13.89
2019-05-25T21:13:41.726Z,13.84
2019-05-25T21:16:14.545Z,13.77
2019-05-25T21:18:47.512Z,13.72
2019-05-25T21:21:20.389Z,13.70
2019-05-25T21:23:53.282Z,13.64
2019-05-25T21:26:26.217Z,13.60
2019-05-25T21:28:59.135Z,13.55
2019-05-25T21:31:34.060Z,13.49
2019-05-25T21:34:06.931Z,13.45
2019-05-25T21:36:42.990Z,13.40
2019-05-25T21:39:14.209Z,13.32
2019-05-25T21:41:47.116Z,13.27
2019-05-25T21:44:20.001Z,13.26
2019-05-25T21:46:52.870Z,13.22
2019-05-25T21:49:25.849Z,13.14
2019-05-25T21:51:58.905Z,13.09
2019-05-25T21:54:31.760Z,13.01
2019-05-25T21:57:04.524Z,12.94
2019-05-25T21:59:37.484Z,12.89
2019-05-25T22:02:10.415Z,12.84
2019-05-25T22:04:43.603Z,12.81
2019-05-25T22:07:16.484Z,12.77
2019-05-25T22:09:50.416Z,12.71
2019-05-25T22:12:23.335Z,12.67
2019-05-25T22:14:56.197Z,12.62
2019-05-25T22:17:29.121Z,12.52
2019-05-25T22:20:02.148Z,12.54
2019-05-25T22:22:35.037Z,12.51
2019-05-25T22:25:08.738Z,12.46
2019-05-25T22:27:41.567Z,12.42
2019-05-25T22:30:15.178Z,12.38
2019-05-25T22:32:48.072Z,12.34
2019-05-25T22:35:21.092Z,12.29
2019-05-25T22:37:54.169Z,12.23
2019-05-25T22:40:27.025Z,12.12
2019-05-25T22:43:00.600Z,12.01
2019-05-25T22:45:33.764Z,12.02
2019-05-25T22:48:06.678Z,11.99
2019-05-25T22:50:39.747Z,11.97
2019-05-25T22:53:12.643Z,11.97
2019-05-25T22:55:45.807Z,11.86
2019-05-25T22:58:18.812Z,11.82
2019-05-25T23:00:51.758Z,11.82
2019-05-25T23:03:24.829Z,11.80
2019-05-25T23:05:58.007Z,11.77
2019-05-25T23:08:30.990Z,11.76
2019-05-25T23:11:04.043Z,11.76
2019-05-25T23:13:36.978Z,11.75
2019-05-25T23:16:12.784Z,11.74
2019-05-25T23:18:45.669Z,11.75
2019-05-25T23:21:18.584Z,11.76
2019-05-25T23:23:51.621Z,11.75
2019-05-25T23:26:24.750Z,11.73
2019-05-25T23:28:57.773Z,11.72
2019-05-25T23:31:30.658Z,11.64
2019-05-25T23:34:03.570Z,11.66
2019-05-25T23:36:36.499Z,11.61
2019-05-25T23:39:09.339Z,11.61
2019-05-25T23:41:42.207Z,11.57
2019-05-25T23:44:15.105Z,11.58
2019-05-25T23:46:48.042Z,11.54
2019-05-25T23:49:20.956Z,11.53
2019-05-25T23:51:53.751Z,11.55
2019-05-25T23:54:26.748Z,11.54
2019-05-25T23:57:00.181Z,11.53
2019-05-25T23:59:33.924Z,11.50
